Time;durP1;ratioP1;P1;durP2;ratioP2;P2;SDS_P1;SDS_P2;PMS_P1;PMS_P2;Temp;Humidity;BMP_temperature;BMP_pressure;BME280_temperature;BME280_humidity;BME280_pressure;Samples;Min_cycle;Max_cycle;Signal;HPM_P1;HPM_P2
2022/04/19 00:00:37;;;;;;;11.32;5.72;;;9.70;99.90;;;;;;4953771;28;20090;-79
2022/04/19 00:03:05;;;;;;;11.13;5.20;;;9.30;99.90;;;;;;4953762;28;20055;-81
2022/04/19 00:05:32;;;;;;;7.70;5.15;;;9.30;99.90;;;;;;4954245;28;20431;-80
2022/04/19 00:07:59;;;;;;;10.50;5.30;;;9.30;99.90;;;;;;4937375;28;20057;-78
2022/04/19 00:10:28;;;;;;;10.90;5.80;;;9.30;99.90;;;;;;4972515;28;20058;-80
2022/04/19 00:13:01;;;;;;;8.57;5.10;;;9.20;99.90;;;;;;4975640;28;20058;-80
2022/04/19 00:15:29;;;;;;;11.43;5.85;;;9.20;99.90;;;;;;4974867;28;20093;-80
2022/04/19 00:18:04;;;;;;;10.18;5.80;;;9.20;99.90;;;;;;4957243;28;20043;-79
2022/04/19 00:20:30;;;;;;;9.18;5.28;;;9.20;99.90;;;;;;4957404;28;20051;-80
2022/04/19 00:22:57;;;;;;;10.18;5.53;;;9.20;99.90;;;;;;4957382;28;20117;-80
2022/04/19 00:25:23;;;;;;;11.13;5.28;;;9.20;99.90;;;;;;4972882;28;20058;-79
2022/04/19 00:27:49;;;;;;;9.68;5.30;;;9.10;99.90;;;;;;4974402;28;20486;-80
2022/04/19 00:30:15;;;;;;;12.48;6.30;;;9.10;99.90;;;;;;4956809;28;20066;-80
2022/04/19 00:32:41;;;;;;;9.05;5.63;;;9.10;99.90;;;;;;4974498;28;20049;-79
2022/04/19 00:35:09;;;;;;;9.30;5.75;;;9.10;99.90;;;;;;4973823;28;20054;-80
2022/04/19 00:37:36;;;;;;;10.13;5.97;;;9.10;99.90;;;;;;4940517;28;20117;-80
2022/04/19 00:40:03;;;;;;;10.20;6.10;;;9.10;99.90;;;;;;4973640;28;20497;-80
2022/04/19 00:42:30;;;;;;;9.85;6.10;;;9.00;99.90;;;;;;4974326;28;20408;-80
2022/04/19 00:45:04;;;;;;;10.40;6.03;;;9.00;99.90;;;;;;4956234;28;20063;-79
2022/04/19 00:47:32;;;;;;;10.10;6.25;;;9.00;99.90;;;;;;4989391;28;20166;-79
2022/04/19 00:50:01;;;;;;;10.23;6.05;;;9.00;99.90;;;;;;4956617;28;20057;-79
2022/04/19 00:52:28;;;;;;;13.10;6.22;;;8.90;99.90;;;;;;4956844;28;20047;-80
2022/04/19 00:54:54;;;;;;;9.07;6.30;;;8.90;99.90;;;;;;4972328;28;20094;-80
2022/04/19 00:57:20;;;;;;;13.38;5.80;;;8.80;99.90;;;;;;4955907;28;20054;-80
2022/04/19 00:59:46;;;;;;;9.25;6.07;;;8.70;99.90;;;;;;4956541;28;20042;-80
2022/04/19 01:02:12;;;;;;;9.25;6.07;;;8.60;99.90;;;;;;4974216;28;20074;-79
2022/04/19 01:04:38;;;;;;;9.73;5.60;;;8.50;99.90;;;;;;4956410;28;20085;-79
2022/04/19 01:07:04;;;;;;;8.93;5.63;;;8.40;99.90;;;;;;4973454;28;20078;-79
2022/04/19 01:09:30;;;;;;;9.40;5.53;;;8.30;99.90;;;;;;4973627;28;20046;-79
2022/04/19 01:14:40;;;;;;;8.82;5.20;;;8.10;99.90;;;;;;4973412;28;20055;-79
2022/04/19 01:17:07;;;;;;;8.63;5.50;;;8.00;99.90;;;;;;4956235;28;20121;-80
2022/04/19 01:19:35;;;;;;;8.75;5.20;;;8.00;99.90;;;;;;4955784;28;20057;-80
2022/04/19 01:22:01;;;;;;;9.40;5.40;;;7.90;99.90;;;;;;4955589;28;20069;-80
2022/04/19 01:24:27;;;;;;;10.20;5.80;;;7.90;99.90;;;;;;4973121;28;20043;-80
2022/04/19 01:26:54;;;;;;;8.98;5.75;;;7.90;99.90;;;;;;4972896;28;20117;-79
2022/04/19 01:29:20;;;;;;;10.90;6.00;;;7.90;99.90;;;;;;4973151;28;20090;-79
2022/04/19 01:31:47;;;;;;;10.57;5.65;;;7.90;99.90;;;;;;4973194;28;20086;-80
2022/04/19 01:34:13;;;;;;;12.00;6.88;;;7.80;99.90;;;;;;4972062;28;20499;-80
2022/04/19 01:36:39;;;;;;;10.82;6.43;;;7.80;99.90;;;;;;4972896;28;20053;-80
2022/04/19 01:39:06;;;;;;;11.07;6.20;;;7.80;99.90;;;;;;4972738;28;20045;-80
2022/04/19 01:41:32;;;;;;;13.60;7.07;;;7.70;99.90;;;;;;4972730;28;20098;-79
2022/04/19 01:43:59;;;;;;;9.95;6.40;;;7.70;99.90;;;;;;4973466;28;20051;-79
2022/04/19 01:46:26;;;;;;;14.23;6.57;;;7.60;99.90;;;;;;4972937;28;20121;-79
2022/04/19 01:48:54;;;;;;;14.45;7.03;;;7.60;99.90;;;;;;4955725;28;20046;-80
2022/04/19 01:51:21;;;;;;;12.45;7.28;;;8.20;99.90;;;;;;4973241;28;20109;-80
2022/04/19 01:53:49;;;;;;;11.73;6.57;;;7.50;99.90;;;;;;4999952;28;20069;-80
2022/04/19 01:56:15;;;;;;;12.05;6.38;;;7.50;99.90;;;;;;4987949;28;20027;-80
2022/04/19 01:58:40;;;;;;;12.20;6.03;;;7.40;99.90;;;;;;4979801;28;20073;-79
2022/04/19 02:01:06;;;;;;;10.07;6.20;;;7.60;99.90;;;;;;4949319;29;20484;-80
2022/04/19 02:03:32;;;;;;;9.75;6.18;;;7.40;99.90;;;;;;4937949;29;20093;-79
2022/04/19 02:05:57;;;;;;;11.88;6.35;;;7.30;99.90;;;;;;4936937;29;20562;-80
2022/04/19 02:08:23;;;;;;;9.85;6.40;;;7.30;99.90;;;;;;4968916;28;20522;-80
2022/04/19 02:10:48;;;;;;;9.57;5.85;;;7.30;99.90;;;;;;4972475;28;20078;-79
2022/04/19 02:13:14;;;;;;;10.02;5.88;;;7.20;99.90;;;;;;4971572;28;20066;-79
2022/04/19 02:15:40;;;;;;;9.65;6.00;;;7.10;99.90;;;;;;4938934;28;20482;-80
2022/04/19 02:18:06;;;;;;;10.45;6.82;;;7.10;99.90;;;;;;4972250;28;20050;-79
2022/04/19 02:20:32;;;;;;;10.27;6.28;;;7.00;99.90;;;;;;4972632;28;20548;-79
2022/04/19 02:22:57;;;;;;;11.77;5.65;;;7.00;99.90;;;;;;4987418;28;20055;-78
2022/04/19 02:25:24;;;;;;;11.20;6.32;;;6.90;99.90;;;;;;4955436;28;20262;-79
2022/04/19 02:27:50;;;;;;;10.05;6.53;;;6.80;99.90;;;;;;4971709;28;20039;-79
2022/04/19 02:30:16;;;;;;;11.57;6.47;;;6.80;99.90;;;;;;4954631;28;20049;-80
2022/04/19 02:32:47;;;;;;;14.65;6.75;;;6.80;99.90;;;;;;4972160;28;20051;-80
2022/04/19 02:35:15;;;;;;;12.73;6.80;;;6.80;99.90;;;;;;4971716;28;20086;-79
2022/04/19 02:37:55;;;;;;;8.98;5.55;;;6.80;99.90;;;;;;4955145;28;20417;-80
2022/04/19 02:40:23;;;;;;;9.52;5.82;;;6.70;99.90;;;;;;4972477;28;20057;-80
2022/04/19 02:42:50;;;;;;;9.68;5.78;;;6.70;99.90;;;;;;4971734;28;20105;-80
2022/04/19 02:45:19;;;;;;;10.45;6.20;;;6.70;99.90;;;;;;4971945;28;20062;-80
2022/04/19 02:47:45;;;;;;;9.75;5.70;;;6.60;99.90;;;;;;4971929;28;20039;-80
2022/04/19 02:50:11;;;;;;;9.43;6.03;;;6.60;99.90;;;;;;4971694;28;20101;-80
2022/04/19 02:52:37;;;;;;;10.02;5.72;;;6.50;99.90;;;;;;4954682;28;20055;-79
2022/04/19 02:55:03;;;;;;;10.27;6.03;;;6.40;99.90;;;;;;4972088;28;20057;-79
2022/04/19 02:57:29;;;;;;;12.88;6.95;;;6.40;99.90;;;;;;4954478;28;20057;-79
2022/04/19 02:59:54;;;;;;;10.93;7.25;;;6.30;99.90;;;;;;4971207;28;20117;-78
2022/04/19 03:02:20;;;;;;;12.95;7.75;;;6.50;99.90;;;;;;4972060;28;20038;-80
2022/04/19 03:04:46;;;;;;;12.25;7.45;;;6.50;99.90;;;;;;4954455;28;20684;-79
2022/04/19 03:07:15;;;;;;;12.70;8.00;;;6.50;99.90;;;;;;4971663;28;20121;-79
2022/04/19 03:09:44;;;;;;;12.10;7.53;;;6.50;99.90;;;;;;4953954;28;20133;-79
2022/04/19 03:12:10;;;;;;;12.25;7.72;;;6.50;99.90;;;;;;4954046;28;20057;-80
2022/04/19 03:14:37;;;;;;;13.35;7.93;;;6.50;99.90;;;;;;4954122;28;20078;-79
2022/04/19 03:17:03;;;;;;;12.05;7.03;;;6.50;99.90;;;;;;4971530;28;20457;-79
2022/04/19 03:19:29;;;;;;;12.27;7.78;;;6.60;99.90;;;;;;4954380;28;20054;-79
2022/04/19 03:21:54;;;;;;;16.85;8.48;;;6.50;99.90;;;;;;4971354;28;20053;-79
2022/04/19 03:29:48;;;;;;;16.13;8.27;;;6.50;99.90;;;;;;4953614;28;20058;-79
2022/04/19 03:32:15;;;;;;;14.75;8.48;;;6.50;99.90;;;;;;4970606;28;20038;-80
2022/04/19 03:34:42;;;;;;;15.05;8.73;;;6.50;99.90;;;;;;4971255;28;20055;-80
2022/04/19 03:37:08;;;;;;;13.98;7.82;;;6.50;99.90;;;;;;4971349;28;20042;-79
2022/04/19 03:39:33;;;;;;;12.95;7.53;;;6.50;99.90;;;;;;4938059;28;20058;-79
2022/04/19 03:41:59;;;;;;;13.27;6.90;;;6.50;99.90;;;;;;4953628;28;20505;-79
2022/04/19 03:44:29;;;;;;;13.50;7.45;;;6.50;99.90;;;;;;4938419;28;20050;-79
2022/04/19 03:47:07;;;;;;;11.15;6.63;;;6.40;99.90;;;;;;4974224;28;20050;-79
2022/04/19 03:49:34;;;;;;;12.98;6.97;;;6.30;99.90;;;;;;4975207;28;20058;-79
2022/04/19 03:52:01;;;;;;;10.43;6.63;;;6.20;99.90;;;;;;4975466;28;20043;-80
2022/04/19 03:54:26;;;;;;;12.85;7.18;;;6.10;99.90;;;;;;4957810;28;20127;-80
2022/04/19 03:56:52;;;;;;;13.73;7.50;;;6.10;99.90;;;;;;4958026;28;20562;-80
2022/04/19 03:59:18;;;;;;;13.45;8.25;;;6.10;99.90;;;;;;4975517;28;20050;-80
2022/04/19 04:01:44;;;;;;;13.48;7.90;;;6.10;99.90;;;;;;4957602;28;20047;-81
2022/04/19 04:04:11;;;;;;;13.93;8.07;;;6.00;99.90;;;;;;4974783;28;20051;-80
2022/04/19 04:06:37;;;;;;;11.70;7.20;;;6.10;99.90;;;;;;4974947;28;20101;-79
2022/04/19 04:09:04;;;;;;;18.05;8.75;;;6.10;99.90;;;;;;4941339;28;20051;-80
2022/04/19 04:11:30;;;;;;;14.13;8.85;;;6.10;99.90;;;;;;4975075;28;20043;-80
2022/04/19 04:13:56;;;;;;;13.25;8.10;;;6.10;99.90;;;;;;4974066;28;20051;-80
2022/04/19 04:16:22;;;;;;;15.63;8.52;;;6.10;99.90;;;;;;4974682;28;20053;-79
2022/04/19 04:18:47;;;;;;;12.85;8.68;;;6.20;99.90;;;;;;4974564;28;20082;-79
2022/04/19 04:21:13;;;;;;;13.55;8.25;;;6.10;99.90;;;;;;4974783;28;20473;-79
2022/04/19 04:23:38;;;;;;;13.07;7.93;;;6.10;99.90;;;;;;4957124;28;20039;-79
2022/04/19 04:26:04;;;;;;;10.77;7.20;;;6.10;99.90;;;;;;4974384;28;20085;-79
2022/04/19 04:28:29;;;;;;;13.15;8.30;;;6.10;99.90;;;;;;4974501;28;20090;-79
2022/04/19 04:30:55;;;;;;;12.63;8.07;;;6.10;99.90;;;;;;4957597;28;20043;-80
2022/04/19 04:33:21;;;;;;;15.10;8.63;;;6.00;99.90;;;;;;4956770;28;20046;-80
2022/04/19 04:35:47;;;;;;;14.82;8.13;;;6.00;99.90;;;;;;4974186;28;20073;-79
2022/04/19 04:38:14;;;;;;;14.43;8.30;;;6.00;99.90;;;;;;4956630;28;20046;-80
2022/04/19 04:40:40;;;;;;;14.05;8.05;;;6.10;99.90;;;;;;4957292;28;20057;-80
2022/04/19 04:43:05;;;;;;;15.30;8.93;;;6.00;99.90;;;;;;4974293;28;20043;-80
2022/04/19 04:45:31;;;;;;;15.15;8.30;;;6.00;99.90;;;;;;4974102;28;20058;-79
2022/04/19 04:50:44;;;;;;;16.45;8.57;;;6.00;99.90;;;;;;4958996;28;20055;-80
2022/04/19 04:53:09;;;;;;;15.45;8.30;;;6.00;99.90;;;;;;4957010;28;20101;-80
2022/04/19 04:55:35;;;;;;;14.75;8.48;;;6.00;99.90;;;;;;4956365;28;20058;-80
2022/04/19 04:58:01;;;;;;;15.45;8.73;;;6.00;99.90;;;;;;4955788;28;20050;-80
2022/04/19 05:00:28;;;;;;;14.32;8.90;;;6.00;99.90;;;;;;4957153;28;20050;-80
2022/04/19 05:02:55;;;;;;;13.48;8.02;;;6.10;99.90;;;;;;4974165;28;20117;-80
2022/04/19 05:05:21;;;;;;;14.52;8.15;;;6.10;99.90;;;;;;4956204;28;20137;-80
2022/04/19 05:07:47;;;;;;;12.85;8.15;;;6.10;99.90;;;;;;4973540;28;20042;-79
2022/04/19 05:10:14;;;;;;;15.43;8.32;;;6.20;99.90;;;;;;4973923;28;20762;-79
2022/04/19 05:12:40;;;;;;;14.25;8.32;;;6.20;99.90;;;;;;4973648;28;20075;-79
2022/04/19 05:15:07;;;;;;;13.07;8.00;;;6.30;99.90;;;;;;4973811;28;20114;-79
2022/04/19 05:17:33;;;;;;;13.50;7.85;;;6.40;99.90;;;;;;4955961;28;20045;-79
2022/04/19 05:19:59;;;;;;;12.32;7.72;;;6.40;99.90;;;;;;4940009;28;20417;-79
2022/04/19 05:22:25;;;;;;;16.00;8.98;;;6.40;99.90;;;;;;4960330;28;20047;-79
2022/04/19 05:24:51;;;;;;;12.40;8.00;;;6.50;99.90;;;;;;4979847;28;20035;-78
2022/04/19 05:27:17;;;;;;;15.80;8.77;;;6.60;99.90;;;;;;4963973;28;20063;-79
2022/04/19 05:29:42;;;;;;;14.02;7.72;;;6.60;99.90;;;;;;4960395;28;20054;-78
2022/04/19 05:32:08;;;;;;;15.13;8.95;;;6.70;99.90;;;;;;4954639;29;20031;-79
2022/04/19 05:34:34;;;;;;;12.80;8.23;;;6.70;99.90;;;;;;4952449;28;20833;-79
2022/04/19 05:37:03;;;;;;;13.32;7.75;;;6.80;99.90;;;;;;4956420;28;20046;-79
2022/04/19 05:39:29;;;;;;;15.70;8.30;;;6.90;99.90;;;;;;4955596;28;20554;-80
2022/04/19 05:41:54;;;;;;;15.35;8.18;;;7.00;99.90;;;;;;4988291;28;20138;-79
2022/04/19 05:44:21;;;;;;;13.98;7.85;;;7.00;99.90;;;;;;4955374;28;20063;-79
2022/04/19 05:46:47;;;;;;;14.13;7.78;;;7.10;99.90;;;;;;4973210;28;20050;-80
2022/04/19 05:49:13;;;;;;;16.98;8.15;;;7.70;99.90;;;;;;4972587;28;20050;-79
2022/04/19 05:51:38;;;;;;;12.63;7.90;;;7.30;99.90;;;;;;4972633;28;20050;-79
2022/04/19 05:54:04;;;;;;;16.60;8.20;;;7.30;99.90;;;;;;4973218;28;20046;-79
2022/04/19 05:56:30;;;;;;;12.45;7.65;;;7.40;99.90;;;;;;4955723;28;20062;-80
2022/04/19 05:58:56;;;;;;;15.13;8.27;;;7.50;99.90;;;;;;4955438;28;20101;-79
2022/04/19 06:01:22;;;;;;;11.57;8.00;;;7.60;99.90;;;;;;4972581;28;20050;-79
2022/04/19 06:06:32;;;;;;;14.00;8.47;;;7.70;99.90;;;;;;4972689;28;20054;-79
2022/04/19 06:08:58;;;;;;;15.68;7.90;;;7.80;99.90;;;;;;4954673;28;20058;-79
2022/04/19 06:11:23;;;;;;;14.35;8.05;;;7.90;99.90;;;;;;4955016;28;20470;-80
2022/04/19 06:13:49;;;;;;;12.95;7.90;;;8.00;99.90;;;;;;4954981;28;20146;-79
2022/04/19 06:16:15;;;;;;;13.30;8.20;;;8.10;99.90;;;;;;4955249;28;20081;-79
2022/04/19 06:18:40;;;;;;;16.40;7.65;;;8.20;99.90;;;;;;4938893;28;20537;-80
2022/04/19 06:21:06;;;;;;;14.77;8.70;;;8.60;99.90;;;;;;4971717;28;20580;-79
2022/04/19 06:23:33;;;;;;;14.60;8.02;;;8.30;99.90;;;;;;4954591;28;20073;-79
2022/04/19 06:25:59;;;;;;;15.68;7.57;;;8.40;99.90;;;;;;4972218;28;20120;-79
2022/04/19 06:28:24;;;;;;;14.82;8.13;;;8.70;99.90;;;;;;4938827;28;20042;-79
2022/04/19 06:30:50;;;;;;;12.93;7.32;;;8.70;99.90;;;;;;4972167;28;20050;-80
2022/04/19 06:33:16;;;;;;;12.77;7.32;;;8.70;99.90;;;;;;4972054;28;20053;-80
2022/04/19 06:35:41;;;;;;;12.23;7.50;;;8.80;99.90;;;;;;4972068;28;20035;-80
2022/04/19 06:38:08;;;;;;;15.63;8.73;;;9.50;99.90;;;;;;4954351;28;20478;-80
2022/04/19 06:40:34;;;;;;;13.70;7.45;;;8.90;99.90;;;;;;4954819;28;20414;-80
2022/04/19 06:43:00;;;;;;;14.32;7.72;;;9.10;99.90;;;;;;4971859;28;20039;-79
2022/04/19 06:45:26;;;;;;;15.10;8.30;;;9.20;99.90;;;;;;4971837;28;20367;-80
2022/04/19 06:48:02;;;;;;;13.35;7.55;;;9.30;99.90;;;;;;4954828;28;20047;-80
2022/04/19 06:50:28;;;;;;;15.50;8.68;;;9.40;99.90;;;;;;4971756;28;20060;-81
2022/04/19 06:52:54;;;;;;;15.65;8.27;;;9.40;99.90;;;;;;4971721;28;20050;-79
2022/04/19 06:55:20;;;;;;;13.57;7.03;;;9.50;99.90;;;;;;4971985;28;20051;-80
2022/04/19 06:57:47;;;;;;;17.73;7.80;;;9.70;99.90;;;;;;4971984;28;20050;-78
2022/04/19 07:00:13;;;;;;;21.85;7.32;;;9.80;99.90;;;;;;4972088;28;20043;-77
2022/04/19 07:02:39;;;;;;;16.67;7.47;;;9.90;99.90;;;;;;4985733;28;20113;-80
2022/04/19 07:05:05;;;;;;;14.63;7.30;;;10.00;99.90;;;;;;4955062;28;20503;-79
2022/04/19 07:07:32;;;;;;;16.65;7.75;;;10.10;99.90;;;;;;4954923;28;20043;-79
2022/04/19 07:09:58;;;;;;;14.23;7.57;;;10.20;99.90;;;;;;4971717;28;20047;-79
2022/04/19 07:12:23;;;;;;;12.90;7.05;;;10.30;99.90;;;;;;4971783;28;20043;-80
2022/04/19 07:14:49;;;;;;;11.45;7.40;;;10.70;99.90;;;;;;4971358;28;20139;-79
2022/04/19 07:17:15;;;;;;;12.98;6.93;;;10.50;99.90;;;;;;4968484;28;20053;-78
2022/04/19 07:28:03;;;;;;;12.95;7.40;;;11.10;99.90;;;;;;4956728;28;20516;-79
2022/04/19 07:30:29;;;;;;;13.93;6.45;;;11.20;99.90;;;;;;4971269;28;20059;-76
2022/04/19 07:33:00;;;;;;;11.57;6.25;;;11.40;99.90;;;;;;4954108;28;20082;-77
2022/04/19 07:35:26;;;;;;;11.70;5.95;;;11.80;99.90;;;;;;4971206;28;20050;-78
2022/04/19 07:37:51;;;;;;;10.27;6.47;;;11.70;99.90;;;;;;4954669;28;20540;-79
2022/04/19 07:40:17;;;;;;;9.40;5.63;;;12.00;99.90;;;;;;4954436;28;20057;-79
2022/04/19 07:42:42;;;;;;;10.93;5.72;;;11.90;99.90;;;;;;4953500;28;20063;-79
2022/04/19 07:45:09;;;;;;;8.10;5.18;;;12.20;99.90;;;;;;4972139;28;20053;-79
2022/04/19 07:47:35;;;;;;;9.40;4.88;;;12.30;99.90;;;;;;4973278;28;20581;-79
2022/04/19 07:50:01;;;;;;;10.02;6.07;;;12.50;99.90;;;;;;4938218;28;20070;-82
2022/04/19 07:52:27;;;;;;;9.55;5.47;;;12.60;99.90;;;;;;4973464;28;20042;-80
2022/04/19 07:54:53;;;;;;;11.30;5.53;;;12.90;99.90;;;;;;4940211;28;20133;-79
2022/04/19 07:57:20;;;;;;;9.57;5.82;;;13.30;99.90;;;;;;4971726;28;20047;-80
2022/04/19 07:59:45;;;;;;;10.13;5.25;;;13.30;99.90;;;;;;4971499;28;20042;-80
2022/04/19 08:02:11;;;;;;;10.50;5.45;;;13.30;99.90;;;;;;4953940;28;20046;-80
2022/04/19 08:04:37;;;;;;;10.45;5.25;;;13.60;99.90;;;;;;4953328;28;20059;-81
2022/04/19 08:07:02;;;;;;;9.50;5.13;;;14.00;99.90;;;;;;4949070;28;20047;-80
2022/04/19 08:09:28;;;;;;;8.10;4.88;;;13.90;99.90;;;;;;4937637;28;20055;-79
2022/04/19 08:11:54;;;;;;;8.48;4.93;;;14.10;99.90;;;;;;4971547;28;20047;-78
2022/04/19 08:14:19;;;;;;;6.80;4.20;;;14.40;99.90;;;;;;4953328;28;20422;-80
2022/04/19 08:16:45;;;;;;;10.15;4.68;;;14.60;99.90;;;;;;4937867;28;20127;-79
2022/04/19 08:19:11;;;;;;;9.02;4.15;;;14.80;99.90;;;;;;4971455;28;20050;-79
2022/04/19 08:21:37;;;;;;;8.40;4.60;;;15.10;99.90;;;;;;4971059;28;20494;-79
2022/04/19 08:24:03;;;;;;;7.40;3.78;;;15.50;99.90;;;;;;4953216;28;20051;-78
2022/04/19 08:26:29;;;;;;;8.95;4.63;;;15.50;99.90;;;;;;4971123;28;20109;-80
2022/04/19 08:28:55;;;;;;;7.25;4.85;;;15.80;99.90;;;;;;4985369;28;20078;-81
2022/04/19 08:31:21;;;;;;;10.90;5.40;;;16.20;99.90;;;;;;4955939;28;20499;-80
2022/04/19 08:33:46;;;;;;;12.15;4.85;;;16.50;99.90;;;;;;4937291;29;20043;-80
2022/04/19 08:36:12;;;;;;;10.73;4.97;;;16.60;99.90;;;;;;4955409;29;20523;-81
2022/04/19 08:38:38;;;;;;;12.02;5.50;;;16.90;99.90;;;;;;4955111;29;20051;-79
2022/04/19 08:41:07;;;;;;;11.55;5.35;;;16.90;99.90;;;;;;4966166;28;20108;-81
2022/04/19 08:43:33;;;;;;;9.15;4.65;;;16.90;99.90;;;;;;4971713;28;20035;-80
2022/04/19 08:46:01;;;;;;;9.27;5.07;;;17.00;99.90;;;;;;4974155;28;20089;-80
2022/04/19 08:48:27;;;;;;;9.38;4.45;;;17.00;99.90;;;;;;4956675;28;20046;-79
2022/04/19 08:50:55;;;;;;;8.20;4.13;;;17.10;99.20;;;;;;4974350;28;20580;-81
2022/04/19 08:58:50;;;;;;;8.45;3.58;;;17.40;98.40;;;;;;4973984;28;20051;-78
2022/04/19 09:01:15;;;;;;;6.00;2.78;;;17.40;97.60;;;;;;4940344;28;20138;-80
2022/04/19 09:03:41;;;;;;;4.38;2.40;;;17.50;96.90;;;;;;4974256;28;20445;-81
2022/04/19 09:06:07;;;;;;;5.88;2.50;;;17.70;95.90;;;;;;4974180;28;20052;-80
2022/04/19 09:08:33;;;;;;;8.05;2.05;;;17.80;94.80;;;;;;4974169;28;20090;-83
2022/04/19 09:11:08;;;;;;;3.70;1.80;;;17.70;92.10;;;;;;4956474;28;20533;-79
2022/04/19 09:13:34;;;;;;;3.58;1.67;;;17.70;91.30;;;;;;4954035;28;20149;-80
2022/04/19 09:16:07;;;;;;;6.13;2.00;;;18.00;92.00;;;;;;4973659;28;20158;-79
2022/04/19 09:18:35;;;;;;;2.78;1.15;;;17.90;85.10;;;;;;4956419;28;20043;-79
2022/04/19 09:21:05;;;;;;;3.40;1.02;;;18.10;83.20;;;;;;4956478;28;20058;-81
2022/04/19 09:23:32;;;;;;;4.22;1.10;;;18.00;78.30;;;;;;4956816;28;20598;-80
2022/04/19 09:26:00;;;;;;;4.45;1.10;;;18.10;76.60;;;;;;4956259;28;20097;-80
2022/04/19 09:28:27;;;;;;;4.35;1.30;;;18.30;79.20;;;;;;4973732;28;20066;-79
2022/04/19 09:30:57;;;;;;;2.28;1.05;;;18.40;75.90;;;;;;4973138;28;20054;-79
2022/04/19 09:33:25;;;;;;;3.55;1.30;;;18.30;70.80;;;;;;4944235;28;20042;-81
2022/04/19 09:35:59;;;;;;;3.25;1.50;;;18.30;71.80;;;;;;4973598;28;20109;-81
2022/04/19 09:38:37;;;;;;;4.18;1.15;;;18.40;71.80;;;;;;4988081;28;20093;-81
2022/04/19 09:41:10;;;;;;;4.03;1.27;;;18.40;70.50;;;;;;4972874;28;20054;-81
2022/04/19 09:43:37;;;;;;;3.70;1.30;;;18.50;73.10;;;;;;4955397;28;20050;-82
2022/04/19 09:46:04;;;;;;;3.80;1.10;;;18.60;71.20;;;;;;4928216;29;20123;-80
2022/04/19 09:48:31;;;;;;;4.70;1.48;;;18.70;69.20;;;;;;4953854;29;20069;-81
2022/04/19 09:51:03;;;;;;;4.25;1.17;;;18.70;69.40;;;;;;4952874;29;20058;-80
2022/04/19 09:53:48;;;;;;;3.00;1.20;;;18.80;69.70;;;;;;4954076;29;20122;-81
2022/04/19 09:56:19;;;;;;;3.40;1.25;;;18.80;69.40;;;;;;4952650;29;20383;-81
2022/04/19 09:58:47;;;;;;;2.70;1.17;;;18.90;68.80;;;;;;4952541;29;20372;-80
2022/04/19 10:09:35;;;;;;;3.58;1.10;;;19.20;68.90;;;;;;4964405;28;20138;-82
2022/04/19 10:12:06;;;;;;;6.15;1.50;;;19.30;68.80;;;;;;4974930;28;20086;-82
2022/04/19 10:14:32;;;;;;;1.92;1.20;;;19.30;68.10;;;;;;4981566;28;20066;-78
2022/04/19 10:16:59;;;;;;;3.20;1.15;;;19.30;67.40;;;;;;4995314;28;20070;-80
2022/04/19 10:19:27;;;;;;;5.63;1.17;;;19.30;66.30;;;;;;4975644;28;20462;-79
2022/04/19 10:21:53;;;;;;;3.90;1.48;;;19.20;67.00;;;;;;4971809;28;20117;-80
2022/04/19 10:24:20;;;;;;;3.88;1.67;;;19.30;66.40;;;;;;4973585;28;20061;-83
2022/04/19 10:26:51;;;;;;;3.13;1.27;;;19.50;67.90;;;;;;4986626;28;20154;-83
2022/04/19 10:29:29;;;;;;;2.65;1.20;;;19.60;66.80;;;;;;4939239;28;20039;-81
2022/04/19 10:32:03;;;;;;;2.95;1.60;;;19.60;65.90;;;;;;4939195;28;20054;-79
2022/04/19 10:34:31;;;;;;;5.55;1.63;;;19.60;66.80;;;;;;4971985;28;20093;-81
2022/04/19 10:37:16;;;;;;;5.72;1.67;;;19.80;66.80;;;;;;4972210;28;20529;-79
2022/04/19 10:39:46;;;;;;;5.60;1.83;;;19.90;67.00;;;;;;4935740;29;20059;-81
2022/04/19 10:42:40;;;;;;;3.63;1.45;;;19.80;67.20;;;;;;4961478;28;20039;-80
2022/04/19 10:45:11;;;;;;;3.47;1.42;;;20.00;67.50;;;;;;4938705;28;20051;-80
2022/04/19 10:47:57;;;;;;;8.70;1.83;;;20.00;66.90;;;;;;4971905;28;20039;-81
2022/04/19 10:50:39;;;;;;;3.63;1.50;;;19.90;67.40;;;;;;4971570;28;20134;-79
2022/04/19 10:53:06;;;;;;;4.40;1.63;;;20.00;66.10;;;;;;4971825;28;20050;-82
2022/04/19 10:55:34;;;;;;;7.22;1.50;;;20.10;66.50;;;;;;4966178;28;20185;-81
2022/04/19 10:58:21;;;;;;;5.93;1.80;;;20.10;66.80;;;;;;4935838;29;20054;-81
2022/04/19 11:00:58;;;;;;;4.15;1.65;;;20.20;66.50;;;;;;4963960;28;20042;-84
2022/04/19 11:03:35;;;;;;;4.43;1.80;;;20.20;66.80;;;;;;4971806;28;20558;-85
2022/04/19 11:06:04;;;;;;;5.45;1.85;;;20.20;65.20;;;;;;4938124;28;20050;-82
2022/04/19 11:08:37;;;;;;;7.05;1.55;;;20.10;65.20;;;;;;4972204;28;20529;-84
2022/04/19 11:11:04;;;;;;;5.05;1.88;;;20.20;65.60;;;;;;4938229;28;20046;-82
2022/04/19 11:13:39;;;;;;;5.57;1.90;;;20.20;65.10;;;;;;4954657;28;20170;-80
2022/04/19 11:16:13;;;;;;;4.85;1.75;;;20.20;64.50;;;;;;4971368;28;20062;-80
2022/04/19 11:18:39;;;;;;;3.58;1.80;;;20.40;66.00;;;;;;4954179;28;20089;-80
2022/04/19 11:21:07;;;;;;;4.32;1.92;;;20.40;65.30;;;;;;4937843;28;20070;-78
2022/04/19 11:23:44;;;;;;;4.10;1.80;;;20.30;64.60;;;;;;4937589;28;20054;-84
2022/04/19 11:26:35;;;;;;;3.67;2.08;;;20.50;64.70;;;;;;4970711;28;20039;-81
2022/04/19 11:29:25;;;;;;;8.25;2.00;;;20.50;65.00;;;;;;5045737;23;20198;-82
2022/04/19 11:31:54;;;;;;;4.70;1.90;;;20.70;66.60;;;;;;4995579;28;20057;-81
2022/04/19 11:34:19;;;;;;;3.63;1.90;;;20.70;64.80;;;;;;4960998;28;20043;-81
2022/04/19 11:37:04;;;;;;;3.67;1.70;;;20.60;64.20;;;;;;4977017;28;20252;-81
2022/04/19 12:10:01;;;;;;;6.18;1.98;;;21.60;64.40;;;;;;5070762;23;20491;-80
2022/04/19 12:12:38;;;;;;;13.80;2.20;;;21.70;63.40;;;;;;4941524;28;20054;-79
2022/04/19 12:15:04;;;;;;;2.20;1.33;;;21.50;63.20;;;;;;4975045;28;20043;-79
2022/04/19 12:17:31;;;;;;;4.85;1.60;;;21.40;62.20;;;;;;4974516;28;20038;-78
2022/04/19 12:20:02;;;;;;;4.30;1.65;;;21.40;62.40;;;;;;4974698;28;20058;-80
2022/04/19 12:22:33;;;;;;;3.42;1.67;;;21.50;62.20;;;;;;4956979;28;20066;-79
2022/04/19 12:24:59;;;;;;;5.80;1.50;;;21.40;61.50;;;;;;4974780;28;20053;-80
2022/04/19 12:27:27;;;;;;;2.97;1.60;;;21.50;61.50;;;;;;4974888;28;20046;-80
2022/04/19 12:29:56;;;;;;;3.10;1.17;;;21.70;61.80;;;;;;4974748;28;20058;-82
2022/04/19 12:32:22;;;;;;;5.55;1.40;;;21.70;61.40;;;;;;4941044;28;20050;-80
2022/04/19 12:34:47;;;;;;;3.15;1.98;;;21.50;61.60;;;;;;4957012;28;20057;-79
2022/04/19 12:37:21;;;;;;;4.78;1.85;;;21.50;62.20;;;;;;4974495;28;20072;-81
2022/04/19 12:40:00;;;;;;;2.65;1.58;;;21.60;60.80;;;;;;4956335;28;20051;-83
2022/04/19 12:42:26;;;;;;;2.65;1.38;;;21.50;61.70;;;;;;4957284;28;20395;-79
2022/04/19 12:45:10;;;;;;;2.63;1.30;;;21.50;60.70;;;;;;4969030;28;20058;-80
2022/04/19 12:47:37;;;;;;;3.53;1.40;;;21.50;61.20;;;;;;4953584;29;20051;-79
2022/04/19 12:50:14;;;;;;;4.35;1.42;;;21.30;60.40;;;;;;4953549;29;20163;-79
2022/04/19 12:52:41;;;;;;;3.25;1.67;;;21.40;61.50;;;;;;4957520;28;20047;-79
2022/04/19 12:55:09;;;;;;;4.43;1.70;;;21.40;62.40;;;;;;4939513;28;20051;-79
2022/04/19 12:57:38;;;;;;;3.17;1.30;;;21.60;61.80;;;;;;4988298;28;20411;-80
2022/04/19 13:00:09;;;;;;;4.78;1.92;;;21.80;62.10;;;;;;4974167;28;20062;-80
2022/04/19 13:02:36;;;;;;;4.00;1.80;;;21.80;61.80;;;;;;4956579;28;20487;-79
2022/04/19 13:05:02;;;;;;;2.38;1.70;;;21.90;61.90;;;;;;4956984;28;20054;-84
2022/04/19 13:13:02;;;;;;;2.22;1.00;;;21.90;61.00;;;;;;4962360;28;20089;-79
2022/04/19 13:15:29;;;;;;;3.83;1.52;;;21.80;60.00;;;;;;4952501;28;20053;-78
2022/04/19 13:17:55;;;;;;;4.22;1.65;;;21.80;60.70;;;;;;4978450;28;20046;-81
2022/04/19 13:20:20;;;;;;;5.43;1.60;;;21.80;60.60;;;;;;4976997;28;20051;-81
2022/04/19 13:22:46;;;;;;;3.42;2.20;;;21.80;60.10;;;;;;4959074;28;20050;-81
2022/04/19 13:25:12;;;;;;;2.92;1.60;;;21.70;60.70;;;;;;4940253;28;20486;-82
2022/04/19 13:27:37;;;;;;;4.03;1.80;;;21.80;60.40;;;;;;4956796;28;20043;-84
2022/04/19 13:30:09;;;;;;;3.15;1.40;;;21.80;60.10;;;;;;4973835;28;20069;-81
2022/04/19 13:32:35;;;;;;;4.47;1.75;;;21.90;61.10;;;;;;4973342;28;20133;-80
2022/04/19 13:35:01;;;;;;;4.10;1.75;;;22.00;61.20;;;;;;4956074;28;20166;-79
2022/04/19 13:40:11;;;;;;;4.15;2.00;;;22.10;61.20;;;;;;4955609;28;20131;-79
2022/04/19 13:42:41;;;;;;;5.78;2.20;;;22.00;60.80;;;;;;4955679;28;20117;-79
2022/04/19 13:45:07;;;;;;;5.13;1.90;;;22.20;62.20;;;;;;4956358;28;20149;-80
2022/04/19 13:47:33;;;;;;;5.45;2.38;;;22.30;61.40;;;;;;4973476;28;20133;-79
2022/04/19 13:49:59;;;;;;;4.30;1.88;;;22.30;61.00;;;;;;4955991;28;20402;-79
2022/04/19 13:52:24;;;;;;;4.18;2.00;;;22.50;62.30;;;;;;4955619;28;20402;-79
2022/04/19 13:54:50;;;;;;;4.32;2.25;;;22.30;59.80;;;;;;4955821;28;20042;-78
2022/04/19 13:57:15;;;;;;;4.65;2.42;;;22.10;60.30;;;;;;4955435;28;20055;-77
2022/04/19 13:59:47;;;;;;;6.47;2.17;;;22.00;59.90;;;;;;4973153;28;20454;-79
2022/04/19 14:02:15;;;;;;;5.38;2.83;;;22.10;61.40;;;;;;4955776;28;20129;-78
2022/04/19 14:04:41;;;;;;;4.97;3.05;;;22.20;60.80;;;;;;4973130;28;20046;-79